Billings, MT (59101)

8:49 PM MDT on August 30, 2016 (GMT -0600)
Jupiter Sulphur | | Change Station

Elev 3114 ft 45.78 °N, 108.49 °W | Updated 3 minutes ago

Scattered Clouds
Scattered Clouds
78.5 °F
Feels Like 79 °F
N
6.0
Wind Variable Wind from NNE
Gusts 8.0 mph

Today
High -- | Low -- °F
--% Chance of Precip.
Yesterday
High -- | Low -- °F
Precip. -- in
Pressure 29.96 in
Visibility 10.0 miles
Clouds Few 9500 ft
Few 13000 ft
Scattered Clouds 24000 ft
Heat Index 79 °F
Dew Point 51 °F
Humidity 38%
Rainfall 0.00 in
Snow Depth Not available.
6:33 AM 7:54 PM
Waning Crescent, 2% visible
METAR KBIL 310153Z 06006KT 10SM FEW095 FEW130 SCT240 27/08 A3005 RMK AO2 SLP144 T02670078
Pressure 29.96 in
Visibility 10.0 miles
Clouds Few 9500 ft
Few 13000 ft
Scattered Clouds 24000 ft
Heat Index 79 °F
Dew Point 51 °F
Humidity 38%
Rainfall 0.00 in
Snow Depth Not available.
6:33 AM 7:54 PM
Waning Crescent, 2% visible
METAR KBIL 310153Z 06006KT 10SM FEW095 FEW130 SCT240 27/08 A3005 RMK AO2 SLP144 T02670078

10-Day Weather Forecast

Almanac

Astronomy

Aug. 30, 2016 Rise Set
Actual Time
Civil Twilight
Nautical Twilight
Astronomical Twilight
Moon
Length of Visible Light
Length of Day
Tomorrow will be .
, % of the Moon is Illuminated

Today's Extremes

State Highs State Lows

Community

WunderPhotos

Upload Photos

1,936,002 photos uploaded!

WunderBlog® & News

Nearby

Air Quality

  Air Quality AQ Index Pollutant
Not available.

Snow Depth

Station Depth Elevation

Earthquake Activity

City Distance Mag. Time & Date
Minimum magnitude displayed is 2.5.

Coastal Water Temperatures

Place Temperature

Stations

Nearby Weather Stations

Station Location Temp. Windchill Dew Point Humidity Wind Precip. Elev Updated Type
                   

Watches & Warnings

There are currently no watches in effect.